Time;durP1;ratioP1;P1;durP2;ratioP2;P2;SDS_P1;SDS_P2;PMS_P1;PMS_P2;Temp;Humidity;BMP_temperature;BMP_pressure;BME280_temperature;BME280_humidity;BME280_pressure;Samples;Min_cycle;Max_cycle;Signal;HPM_P1;HPM_P2
2023/08/06 00:00:41;;;;;;;8.13;4.97;;;;;;;27.49;50.16;98345.53;4331424;33;33241;-67
2023/08/06 00:03:09;;;;;;;8.25;5.18;;;;;;;27.47;50.12;98347.75;4331187;33;33477;-67
2023/08/06 00:05:36;;;;;;;10.18;5.53;;;;;;;27.48;50.08;98343.91;4331581;33;34334;-67
2023/08/06 00:08:04;;;;;;;12.45;6.15;;;;;;;27.46;50.12;98341.44;4331183;33;33851;-67
2023/08/06 00:10:32;;;;;;;9.93;6.82;;;;;;;27.46;50.05;98329.66;4331024;33;33313;-67
2023/08/06 00:12:59;;;;;;;11.52;6.45;;;;;;;27.43;50.01;98316.56;4331199;33;33996;-67
2023/08/06 00:15:27;;;;;;;7.82;6.15;;;;;;;27.34;50.24;98318.31;4331202;33;34935;-67
2023/08/06 00:17:54;;;;;;;9.68;6.60;;;;;;;27.31;50.31;98319.69;4330978;33;33564;-67
2023/08/06 00:20:22;;;;;;;9.38;6.22;;;;;;;27.32;50.36;98323.22;4337854;33;33486;-67
2023/08/06 00:22:50;;;;;;;8.68;6.37;;;;;;;27.30;50.37;98326.28;4345801;33;34018;-67
2023/08/06 00:25:17;;;;;;;10.40;6.45;;;;;;;27.29;50.41;98334.78;4345657;33;34038;-68
2023/08/06 00:27:45;;;;;;;7.82;6.12;;;;;;;27.30;50.38;98339.16;4345889;33;33487;-67
2023/08/06 00:30:12;;;;;;;8.93;5.80;;;;;;;27.29;50.46;98340.25;4345637;33;33098;-67
2023/08/06 00:32:40;;;;;;;9.30;6.47;;;;;;;27.28;50.46;98331.22;4345506;33;33641;-67
2023/08/06 00:35:08;;;;;;;8.80;6.70;;;;;;;27.27;50.52;98332.31;4345575;33;34116;-67
2023/08/06 00:37:36;;;;;;;10.10;6.82;;;;;;;27.29;50.45;98334.78;4345508;33;33774;-67
2023/08/06 00:40:04;;;;;;;9.70;7.25;;;;;;;27.27;50.46;98335.06;4345941;33;34209;-67
2023/08/06 00:42:32;;;;;;;10.10;7.20;;;;;;;27.28;50.45;98327.66;4347638;33;34104;-67
2023/08/06 00:44:59;;;;;;;11.23;6.95;;;;;;;27.28;50.43;98327.66;4347689;33;33714;-67
2023/08/06 00:47:27;;;;;;;9.15;7.25;;;;;;;27.27;50.41;98318.63;4347296;33;34606;-67
2023/08/06 00:49:55;;;;;;;9.50;7.18;;;;;;;27.27;50.43;98309.59;4334226;33;33260;-67
2023/08/06 00:52:22;;;;;;;8.68;6.80;;;;;;;27.27;50.46;98307.66;4334218;33;34675;-67
2023/08/06 00:54:50;;;;;;;10.02;6.43;;;;;;;27.27;50.50;98307.66;4347355;33;33409;-67
2023/08/06 00:57:18;;;;;;;9.27;6.45;;;;;;;27.26;50.44;98303.28;4347593;33;33759;-67
2023/08/06 00:59:46;;;;;;;10.27;7.30;;;;;;;27.26;50.42;98303.28;4334600;33;34399;-67
2023/08/06 01:02:14;;;;;;;10.32;6.62;;;;;;;27.27;50.47;98293.97;4322047;33;34627;-67
2023/08/06 01:04:41;;;;;;;7.65;6.07;;;;;;;27.27;50.49;98290.41;4347490;33;33506;-67
2023/08/06 01:07:27;;;;;;;8.48;5.05;;;;;;;27.25;50.48;98287.97;4347460;33;34045;-67
2023/08/06 01:10:10;;;;;;;10.40;6.15;;;;;;;27.27;50.32;98282.19;4347537;33;32989;-67
2023/08/06 01:12:40;;;;;;;8.75;6.07;;;;;;;27.26;50.31;98269.63;4333894;33;35309;-67
2023/08/06 01:15:29;;;;;;;6.60;4.90;;;;;;;27.23;50.17;98270.19;4347389;33;34101;-67
2023/08/06 01:17:57;;;;;;;7.20;4.97;;;;;;;27.25;50.06;98265.25;4347193;33;34485;-67
2023/08/06 01:20:29;;;;;;;6.55;4.93;;;;;;;27.20;50.09;98260.66;4347276;33;34152;-67
2023/08/06 01:22:57;;;;;;;7.87;5.05;;;;;;;27.19;50.12;98257.09;4334168;33;33624;-67
2023/08/06 01:25:32;;;;;;;6.20;4.70;;;;;;;27.19;50.07;98251.62;4347139;33;34821;-67
2023/08/06 01:28:15;;;;;;;6.35;4.57;;;;;;;27.20;49.97;98257.91;4322061;33;33429;-67
2023/08/06 01:30:42;;;;;;;6.72;4.47;;;;;;;27.19;49.98;98256.28;4335309;33;33075;-67
2023/08/06 01:33:14;;;;;;;8.32;4.05;;;;;;;27.18;49.98;98260.91;4309811;33;33016;-67
2023/08/06 01:35:42;;;;;;;6.05;4.22;;;;;;;27.16;49.96;98259.59;4333829;33;34678;-68
2023/08/06 01:38:10;;;;;;;5.35;4.10;;;;;;;27.17;49.97;98267.50;4333929;33;34515;-67
2023/08/06 01:40:37;;;;;;;7.12;4.45;;;;;;;27.16;49.91;98260.41;4333925;33;33522;-67
2023/08/06 01:43:05;;;;;;;6.43;4.22;;;;;;;27.16;49.92;98259.59;4347121;33;34739;-67
2023/08/06 01:45:33;;;;;;;6.85;4.45;;;;;;;27.15;49.95;98261.50;4347199;33;33897;-67
2023/08/06 01:48:00;;;;;;;6.95;4.18;;;;;;;27.16;49.91;98260.41;4333664;33;34034;-67
2023/08/06 01:50:28;;;;;;;6.37;4.00;;;;;;;27.16;49.84;98256.84;4346904;33;34257;-67
2023/08/06 01:52:56;;;;;;;6.55;4.07;;;;;;;27.16;49.82;98254.94;4347205;33;34644;-67
2023/08/06 01:55:23;;;;;;;7.15;4.75;;;;;;;27.15;49.80;98242.34;4334042;33;33566;-67
2023/08/06 01:57:51;;;;;;;7.28;3.92;;;;;;;27.16;49.77;98243.16;4345645;33;33550;-67
2023/08/06 02:00:19;;;;;;;6.15;4.20;;;;;;;27.15;49.78;98239.59;4332507;33;34106;-67
2023/08/06 02:02:47;;;;;;;5.68;3.87;;;;;;;27.15;49.78;98220.44;4332411;33;34801;-67
2023/08/06 02:05:14;;;;;;;5.87;4.10;;;;;;;27.14;49.74;98221.56;4332263;33;33975;-67
2023/08/06 02:07:42;;;;;;;5.72;3.87;;;;;;;27.15;49.72;98209.50;4332296;33;34603;-67
2023/08/06 02:10:10;;;;;;;4.72;3.30;;;;;;;27.14;49.67;98209.75;4332648;33;33167;-67
2023/08/06 02:12:37;;;;;;;4.87;3.35;;;;;;;27.12;49.64;98203.78;4332447;33;34220;-67
2023/08/06 02:15:05;;;;;;;6.30;3.95;;;;;;;27.12;49.65;98196.38;4332353;33;33909;-67
2023/08/06 02:17:33;;;;;;;5.05;3.30;;;;;;;27.11;49.66;98183.78;4332199;33;34176;-67
2023/08/06 02:20:01;;;;;;;5.53;3.42;;;;;;;27.09;49.59;98177.81;4335330;33;34114;-67
2023/08/06 02:22:30;;;;;;;5.82;3.22;;;;;;;27.06;49.58;98183.81;4347133;33;33947;-67
2023/08/06 02:24:58;;;;;;;5.72;3.62;;;;;;;27.07;49.58;98185.44;4346948;33;33930;-67
2023/08/06 02:27:25;;;;;;;4.82;3.35;;;;;;;27.07;49.60;98177.22;4346849;33;34599;-67
2023/08/06 02:29:53;;;;;;;5.55;3.00;;;;;;;27.05;49.64;98171.25;4346904;33;34151;-67
2023/08/06 02:32:20;;;;;;;5.60;3.35;;;;;;;27.05;49.59;98173.97;4347141;33;33992;-67
2023/08/06 02:34:48;;;;;;;5.75;2.95;;;;;;;27.05;49.62;98170.44;4346782;33;34821;-67
2023/08/06 02:37:15;;;;;;;4.10;2.75;;;;;;;27.03;49.61;98173.44;4346815;33;33722;-67
2023/08/06 02:39:45;;;;;;;4.43;2.90;;;;;;;27.03;49.59;98178.91;4346929;33;34151;-67
2023/08/06 02:42:13;;;;;;;5.87;2.85;;;;;;;27.04;49.56;98172.31;4346930;33;33489;-67
2023/08/06 02:44:40;;;;;;;3.67;2.45;;;;;;;27.04;49.59;98169.59;4346826;33;33979;-68
2023/08/06 02:47:08;;;;;;;5.93;2.70;;;;;;;27.05;49.57;98164.97;4346814;33;33855;-67
2023/08/06 02:49:36;;;;;;;4.87;2.95;;;;;;;27.05;49.57;98151.28;4346972;33;33819;-67
2023/08/06 02:52:04;;;;;;;4.72;2.97;;;;;;;27.05;49.51;98154.00;4333798;33;33803;-67
2023/08/06 02:54:32;;;;;;;5.15;2.65;;;;;;;27.04;49.46;98150.41;4347096;33;34776;-67
2023/08/06 02:56:59;;;;;;;4.20;2.65;;;;;;;27.05;49.45;98163.03;4346921;33;33754;-67
2023/08/06 02:59:27;;;;;;;4.30;2.53;;;;;;;27.04;49.43;98169.59;4347103;33;34103;-67
2023/08/06 03:01:56;;;;;;;4.20;2.50;;;;;;;27.03;49.41;98165.22;4333590;33;33914;-67
2023/08/06 03:04:27;;;;;;;4.03;2.35;;;;;;;27.03;49.36;98167.97;4346428;33;34025;-67
2023/08/06 03:06:55;;;;;;;4.07;2.35;;;;;;;27.03;49.36;98165.22;4346669;33;33695;-67
2023/08/06 03:09:23;;;;;;;4.55;2.90;;;;;;;27.00;49.29;98163.09;4346392;33;33464;-67
2023/08/06 03:11:51;;;;;;;4.10;2.60;;;;;;;27.01;49.29;98172.91;4346641;33;33796;-67
2023/08/06 03:14:19;;;;;;;5.90;2.50;;;;;;;27.01;49.25;98174.84;4346993;33;34025;-67
2023/08/06 03:16:47;;;;;;;5.47;3.00;;;;;;;26.99;49.26;98166.91;4346531;33;33682;-67
2023/08/06 03:19:15;;;;;;;4.05;2.72;;;;;;;26.98;49.21;98159.00;4346481;33;33501;-67
2023/08/06 03:21:43;;;;;;;5.55;3.00;;;;;;;26.96;49.21;98162.03;4346862;33;33899;-68
2023/08/06 03:24:13;;;;;;;4.33;2.70;;;;;;;26.96;49.17;98159.28;4346664;33;35435;-67
2023/08/06 03:26:41;;;;;;;4.85;2.92;;;;;;;26.96;49.15;98167.50;4346772;33;33908;-68
2023/08/06 03:29:10;;;;;;;6.35;3.60;;;;;;;26.95;49.16;98169.44;4333515;33;33208;-67
2023/08/06 03:31:38;;;;;;;7.78;3.25;;;;;;;26.94;49.13;98166.97;4346568;33;33820;-67
2023/08/06 03:34:06;;;;;;;4.87;3.08;;;;;;;26.92;49.20;98160.97;4346567;33;33926;-67
2023/08/06 03:36:34;;;;;;;5.47;2.37;;;;;;;26.91;49.13;98156.59;4346637;33;33330;-67
2023/08/06 03:39:02;;;;;;;4.25;2.47;;;;;;;26.90;49.09;98163.97;4346219;33;33206;-67
2023/08/06 03:41:31;;;;;;;5.62;2.53;;;;;;;26.89;49.07;98162.34;4346601;33;32638;-67
2023/08/06 03:44:00;;;;;;;5.05;2.97;;;;;;;26.87;49.04;98159.09;4346576;33;33747;-67
2023/08/06 03:46:28;;;;;;;4.70;2.62;;;;;;;26.86;49.05;98160.22;4346208;33;33891;-67
2023/08/06 03:48:56;;;;;;;4.45;2.92;;;;;;;26.87;49.02;98163.75;4346100;33;33323;-67
2023/08/06 03:51:25;;;;;;;5.43;2.43;;;;;;;26.86;49.03;98173.06;4346352;33;34375;-67
2023/08/06 03:53:53;;;;;;;4.22;2.65;;;;;;;26.85;49.01;98165.94;4346454;33;33798;-67
2023/08/06 03:56:21;;;;;;;5.25;2.67;;;;;;;26.84;49.02;98170.63;4346137;33;34900;-67
2023/08/06 03:58:49;;;;;;;5.40;2.78;;;;;;;26.84;49.09;98161.59;4346307;33;33180;-67
2023/08/06 04:01:17;;;;;;;5.90;3.05;;;;;;;26.84;49.07;98164.31;4346091;33;33557;-67
2023/08/06 04:03:45;;;;;;;5.47;3.10;;;;;;;26.81;49.04;98160.22;4346214;33;34000;-68
2023/08/06 04:06:13;;;;;;;5.95;2.75;;;;;;;26.80;48.98;98160.53;4346085;33;33661;-67
2023/08/06 04:08:41;;;;;;;4.53;2.90;;;;;;;26.80;48.97;98160.53;4345945;33;34194;-67
2023/08/06 04:11:09;;;;;;;4.22;3.03;;;;;;;26.79;48.90;98156.97;4346053;33;33113;-67
2023/08/06 04:13:36;;;;;;;4.22;2.97;;;;;;;26.80;48.89;98149.59;4345894;33;34478;-67
2023/08/06 04:16:04;;;;;;;4.70;2.92;;;;;;;26.78;48.91;98149.87;4347826;33;33484;-67
2023/08/06 04:18:32;;;;;;;4.12;2.78;;;;;;;26.79;48.93;98147.97;4347809;33;34192;-68
2023/08/06 04:21:01;;;;;;;4.80;2.65;;;;;;;26.75;49.01;98144.97;4340976;33;34018;-67
2023/08/06 04:23:29;;;;;;;4.93;2.60;;;;;;;26.75;49.06;98142.25;4319812;33;35259;-67
2023/08/06 04:25:57;;;;;;;3.40;2.05;;;;;;;26.76;48.96;98148.53;4333013;33;33783;-67
2023/08/06 04:28:25;;;;;;;3.45;1.62;;;;;;;26.74;48.90;98148.00;4319538;33;33401;-67
2023/08/06 04:30:53;;;;;;;4.85;1.70;;;;;;;26.72;48.89;98145.56;4333236;33;33758;-67
2023/08/06 04:33:22;;;;;;;5.85;1.62;;;;;;;26.73;48.83;98140.91;4319856;33;33900;-67
2023/08/06 04:35:54;;;;;;;1.95;1.23;;;;;;;26.71;48.77;98136.53;4333068;33;34111;-67
2023/08/06 04:38:24;;;;;;;2.67;1.20;;;;;;;26.71;48.70;98144.72;4332972;33;33388;-68
2023/08/06 04:40:52;;;;;;;3.42;1.55;;;;;;;26.68;48.62;98130.84;4308256;33;33527;-67
2023/08/06 04:43:20;;;;;;;3.28;1.62;;;;;;;26.67;48.50;98130.03;4307740;33;34763;-67
2023/08/06 04:45:53;;;;;;;3.05;1.52;;;;;;;26.63;48.51;98126.22;4332912;33;33823;-67
2023/08/06 04:48:21;;;;;;;4.43;1.60;;;;;;;26.63;48.52;98126.22;4319632;33;33341;-67
2023/08/06 04:50:49;;;;;;;3.15;1.70;;;;;;;26.62;48.56;98135.50;4319549;33;33835;-67
2023/08/06 04:53:17;;;;;;;3.30;1.40;;;;;;;26.61;48.48;98127.59;4332755;33;33918;-67
2023/08/06 04:55:44;;;;;;;3.55;1.37;;;;;;;26.60;48.50;98134.19;4319518;33;34531;-68
2023/08/06 04:58:12;;;;;;;2.67;1.23;;;;;;;26.61;48.49;98130.34;4322876;33;33825;-67
2023/08/06 05:00:40;;;;;;;1.35;0.85;;;;;;;26.61;48.52;98124.88;4321940;33;32903;-67
2023/08/06 05:03:08;;;;;;;1.83;1.10;;;;;;;26.62;48.44;98123.75;4334119;33;33915;-67
2023/08/06 05:05:36;;;;;;;2.35;0.88;;;;;;;26.62;48.39;98124.56;4334191;33;33917;-68
2023/08/06 05:08:04;;;;;;;1.17;0.62;;;;;;;26.62;48.36;98130.03;4347747;33;32602;-67
2023/08/06 05:10:31;;;;;;;2.95;0.75;;;;;;;26.63;48.27;98125.41;4347183;33;35272;-67
2023/08/06 05:12:59;;;;;;;3.83;0.80;;;;;;;26.64;48.24;98116.91;4347586;33;33625;-67
2023/08/06 05:15:26;;;;;;;3.87;0.88;;;;;;;26.66;48.19;98111.13;4347703;33;33188;-67
2023/08/06 05:17:54;;;;;;;1.48;0.57;;;;;;;26.67;48.18;98115.50;4347642;33;33035;-67
2023/08/06 05:20:22;;;;;;;3.35;0.68;;;;;;;26.67;48.21;98105.41;4347233;33;33814;-67
2023/08/06 05:22:49;;;;;;;2.28;0.73;;;;;;;26.69;48.20;98105.09;4347424;33;34664;-67
2023/08/06 05:25:17;;;;;;;0.68;0.57;;;;;;;26.70;48.15;98118.47;4331591;33;35285;-67
2023/08/06 05:27:45;;;;;;;2.60;0.70;;;;;;;26.70;48.11;98109.47;4318736;33;33204;-68
2023/08/06 05:30:13;;;;;;;1.35;0.50;;;;;;;26.71;48.10;98113.81;4319109;33;33828;-67
2023/08/06 05:32:40;;;;;;;1.00;0.30;;;;;;;26.71;48.07;98119.28;4332403;33;35527;-67
2023/08/06 05:35:08;;;;;;;1.50;0.60;;;;;;;26.71;48.06;98111.91;4332626;33;33842;-67
2023/08/06 05:37:36;;;;;;;0.75;0.37;;;;;;;26.73;48.06;98111.63;4332612;33;33136;-67
2023/08/06 05:40:04;;;;;;;0.77;0.40;;;;;;;26.75;47.99;98111.34;4332563;33;34647;-67
2023/08/06 05:42:31;;;;;;;2.35;0.60;;;;;;;26.74;47.96;98112.44;4332808;33;33600;-67
2023/08/06 05:44:59;;;;;;;0.28;0.28;;;;;;;26.74;47.88;98117.91;4332621;33;34558;-67
2023/08/06 05:47:27;;;;;;;0.32;0.30;;;;;;;26.75;47.85;98108.59;4331905;33;34237;-67
2023/08/06 05:49:54;;;;;;;1.55;0.30;;;;;;;26.73;47.75;98108.91;4332662;33;32754;-67
2023/08/06 05:52:22;;;;;;;3.10;0.40;;;;;;;26.75;47.67;98108.59;4319040;33;33615;-68
2023/08/06 05:54:50;;;;;;;0.40;0.40;;;;;;;26.73;47.50;98108.91;4332298;33;34190;-67
2023/08/06 05:57:17;;;;;;;3.60;0.50;;;;;;;26.73;47.41;98106.16;4332423;33;33370;-67
2023/08/06 05:59:45;;;;;;;1.58;0.30;;;;;;;26.71;47.36;98097.41;4345226;33;33828;-66
2023/08/06 06:02:13;;;;;;;2.67;0.40;;;;;;;26.71;47.32;98098.22;4333539;33;34681;-67
2023/08/06 06:13:57;;;;;;;0.85;0.40;;;;;;;26.79;46.81;98082.28;4967460;27;20009;-68
2023/08/06 06:16:25;;;;;;;0.55;0.45;;;;;;;26.66;46.95;98084.59;4319103;33;34234;-68
2023/08/06 06:18:54;;;;;;;0.98;0.40;;;;;;;26.63;46.98;98082.47;4332044;33;34060;-68
2023/08/06 06:21:22;;;;;;;1.50;0.40;;;;;;;26.62;46.96;98085.47;4318951;33;33890;-68
2023/08/06 06:23:51;;;;;;;0.43;0.40;;;;;;;26.62;46.92;98089.00;4318581;33;32598;-69
2023/08/06 06:26:18;;;;;;;0.57;0.40;;;;;;;26.60;46.97;98088.50;4332227;33;33540;-68
2023/08/06 06:28:46;;;;;;;0.60;0.60;;;;;;;26.60;46.91;98099.44;4318979;33;33394;-67
2023/08/06 06:31:14;;;;;;;1.85;0.60;;;;;;;26.60;46.83;98098.62;4294760;33;32210;-68
2023/08/06 06:33:41;;;;;;;2.60;0.40;;;;;;;26.59;46.97;98097.00;4318755;33;33219;-69
2023/08/06 06:36:09;;;;;;;0.52;0.50;;;;;;;26.58;47.00;98109.88;4306646;33;33435;-68
2023/08/06 06:38:37;;;;;;;0.30;0.30;;;;;;;26.58;47.02;98119.97;4318034;33;33054;-68
2023/08/06 06:41:05;;;;;;;0.50;0.40;;;;;;;26.59;46.95;98111.50;4318866;33;33624;-68
2023/08/06 06:43:32;;;;;;;3.53;0.82;;;;;;;26.58;46.87;98115.34;4306697;33;33059;-66
2023/08/06 06:46:00;;;;;;;1.15;0.50;;;;;;;26.57;46.83;98118.34;4318697;33;32811;-67
2023/08/06 06:48:29;;;;;;;6.93;1.00;;;;;;;26.57;46.91;98116.41;4304201;33;33297;-66
2023/08/06 06:50:56;;;;;;;2.17;0.80;;;;;;;26.57;47.02;98118.34;4280352;33;32994;-68
2023/08/06 06:53:27;;;;;;;5.72;1.10;;;;;;;26.58;47.04;98111.75;4304069;33;34002;-68
2023/08/06 06:56:02;;;;;;;4.72;0.80;;;;;;;26.57;47.02;98118.34;4303848;33;32989;-67
2023/08/06 06:58:32;;;;;;;0.77;0.50;;;;;;;26.59;46.99;98119.69;4309255;33;33138;-68
2023/08/06 07:01:00;;;;;;;3.53;0.60;;;;;;;26.60;47.04;98106.84;4318531;33;34683;-68
2023/08/06 07:03:27;;;;;;;2.47;0.60;;;;;;;26.61;47.04;98114.75;4332077;33;33644;-68
2023/08/06 07:05:59;;;;;;;1.10;0.60;;;;;;;26.63;47.06;98109.00;4318702;33;33751;-68
2023/08/06 07:08:27;;;;;;;2.85;0.50;;;;;;;26.62;47.09;98102.69;4318735;33;33077;-68
2023/08/06 07:11:05;;;;;;;0.52;0.40;;;;;;;26.65;47.08;98106.78;4306609;33;32603;-68
2023/08/06 07:13:34;;;;;;;2.40;0.65;;;;;;;26.67;47.03;98105.41;4318327;33;33725;-69
2023/08/06 07:16:02;;;;;;;0.77;0.52;;;;;;;26.65;46.99;98109.50;4306440;33;32764;-68
2023/08/06 07:18:30;;;;;;;0.80;0.43;;;;;;;26.65;46.81;98112.25;4318376;33;33232;-68
2023/08/06 07:20:58;;;;;;;0.40;0.40;;;;;;;26.64;46.79;98116.91;4306188;33;32685;-70
2023/08/06 07:23:26;;;;;;;0.65;0.37;;;;;;;26.63;46.83;98117.22;4331626;33;33964;-70
2023/08/06 07:26:05;;;;;;;0.73;0.40;;;;;;;26.64;46.83;98132.50;4332064;33;34531;-69
2023/08/06 07:28:33;;;;;;;0.50;0.40;;;;;;;26.65;46.82;98136.88;4318099;33;34079;-68
2023/08/06 07:31:00;;;;;;;0.60;0.40;;;;;;;26.65;46.85;98137.69;4331452;33;33715;-68
2023/08/06 07:33:28;;;;;;;0.40;0.30;;;;;;;26.67;46.85;98138.22;4318643;33;34154;-68
2023/08/06 07:35:55;;;;;;;0.45;0.35;;;;;;;26.65;46.85;98134.94;4331225;33;33749;-68
2023/08/06 07:38:23;;;;;;;2.28;0.70;;;;;;;26.66;46.82;98122.91;4330964;33;32925;-68
2023/08/06 07:40:51;;;;;;;1.52;0.40;;;;;;;26.67;46.74;98130.03;4331088;33;34249;-68
2023/08/06 07:43:18;;;;;;;3.55;0.40;;;;;;;26.67;46.84;98131.91;4330578;33;33861;-69
2023/08/06 07:45:46;;;;;;;0.68;0.50;;;;;;;26.67;46.92;98135.50;4329781;33;34476;-69
2023/08/06 07:48:14;;;;;;;2.03;0.65;;;;;;;26.69;46.99;98136.00;4327196;33;32850;-69
2023/08/06 07:50:42;;;;;;;2.58;0.55;;;;;;;26.72;47.16;98131.91;4314888;33;33537;-69
2023/08/06 07:53:09;;;;;;;2.42;0.80;;;;;;;26.74;47.19;98137.88;4315239;33;35379;-69
2023/08/06 07:55:37;;;;;;;0.77;0.40;;;;;;;26.75;47.26;98133.22;4313949;33;34416;-69
2023/08/06 07:58:05;;;;;;;5.25;0.60;;;;;;;26.76;47.29;98134.84;4315492;33;32924;-69
2023/08/06 08:00:33;;;;;;;0.98;0.40;;;;;;;26.77;47.28;98133.75;4322879;33;33727;-68
2023/08/06 08:03:01;;;;;;;1.83;0.65;;;;;;;26.78;47.27;98132.66;4328542;33;33947;-68
2023/08/06 08:05:28;;;;;;;4.43;0.80;;;;;;;26.79;47.25;98129.62;4316706;33;33340;-69
2023/08/06 08:07:56;;;;;;;3.42;0.70;;;;;;;26.80;47.24;98123.03;4316805;33;33114;-68
2023/08/06 08:10:24;;;;;;;2.12;0.60;;;;;;;26.81;47.24;98116.44;4316576;33;34523;-68
2023/08/06 08:12:52;;;;;;;1.00;0.57;;;;;;;26.81;47.21;98116.44;4316473;33;34462;-68
2023/08/06 08:15:20;;;;;;;3.85;0.85;;;;;;;26.82;47.20;98114.56;4316746;33;33358;-68
2023/08/06 08:17:47;;;;;;;2.65;0.65;;;;;;;26.83;47.17;98113.44;4315216;33;33310;-68
2023/08/06 08:20:16;;;;;;;1.58;0.50;;;;;;;26.83;47.16;98119.72;4326497;33;33580;-69
2023/08/06 08:22:43;;;;;;;1.75;0.60;;;;;;;26.83;47.14;98129.88;4317851;33;33892;-68
2023/08/06 08:25:11;;;;;;;7.53;0.70;;;;;;;26.85;47.13;98135.84;4317637;33;33647;-68
2023/08/06 08:27:39;;;;;;;3.95;0.68;;;;;;;26.86;47.10;98145.69;4331126;33;33106;-68
2023/08/06 08:30:07;;;;;;;1.27;0.50;;;;;;;26.85;47.11;98149.53;4331106;33;33460;-68
2023/08/06 08:32:35;;;;;;;2.15;0.65;;;;;;;26.87;47.09;98150.06;4330724;33;34782;-69
2023/08/06 08:35:03;;;;;;;1.20;0.60;;;;;;;26.86;47.08;98151.16;4331285;33;33415;-68
2023/08/06 08:37:30;;;;;;;0.93;0.50;;;;;;;26.86;47.06;98149.25;4329347;33;34545;-68
2023/08/06 08:39:58;;;;;;;2.17;0.82;;;;;;;26.87;47.03;98145.41;4330748;33;34702;-68
2023/08/06 08:42:26;;;;;;;2.28;0.60;;;;;;;26.87;47.02;98136.41;4330842;33;33861;-68
2023/08/06 08:44:53;;;;;;;3.92;1.00;;;;;;;26.88;47.01;98138.84;4317496;33;34162;-68
2023/08/06 08:47:21;;;;;;;1.75;0.60;;;;;;;26.88;47.01;98140.75;4317301;33;33351;-68
2023/08/06 08:49:49;;;;;;;2.40;0.50;;;;;;;26.88;46.97;98136.09;4317380;33;33905;-69
2023/08/06 08:52:16;;;;;;;1.85;0.60;;;;;;;26.88;46.95;98136.09;4317566;33;34017;-68
2023/08/06 08:54:44;;;;;;;1.98;0.80;;;;;;;26.88;46.94;98133.34;4317328;33;33493;-68
2023/08/06 08:57:12;;;;;;;0.57;0.57;;;;;;;26.89;46.93;98125.97;4315848;33;33299;-68
2023/08/06 08:59:39;;;;;;;1.33;0.52;;;;;;;26.90;46.90;98133.06;4315959;33;33556;-68
2023/08/06 09:02:07;;;;;;;1.10;0.62;;;;;;;26.89;46.91;98129.50;4317318;33;33862;-68
2023/08/06 09:04:36;;;;;;;3.08;0.70;;;;;;;26.90;46.89;98141.28;4304971;33;34199;-68
2023/08/06 09:07:04;;;;;;;1.03;0.50;;;;;;;26.90;46.88;98149.47;4317302;33;33119;-68
2023/08/06 09:09:33;;;;;;;2.47;0.80;;;;;;;26.91;46.85;98157.41;4316862;33;33601;-68
2023/08/06 09:12:02;;;;;;;1.12;0.50;;;;;;;26.90;46.80;98155.75;4304990;33;34680;-68
2023/08/06 09:14:29;;;;;;;0.50;0.50;;;;;;;26.90;46.79;98163.97;4316812;33;34354;-68
2023/08/06 09:16:57;;;;;;;1.50;0.62;;;;;;;26.91;46.81;98170.28;4318063;33;33040;-68
2023/08/06 09:19:25;;;;;;;0.80;0.60;;;;;;;26.90;46.77;98161.25;4304670;33;33529;-68
2023/08/06 09:21:53;;;;;;;0.95;0.60;;;;;;;26.91;46.75;98170.28;4318889;33;33715;-68
2023/08/06 09:24:22;;;;;;;0.85;0.70;;;;;;;26.90;46.70;98147.56;4319433;33;33648;-69
2023/08/06 09:26:49;;;;;;;0.52;0.52;;;;;;;26.91;46.67;98151.13;4319407;33;33934;-68
2023/08/06 09:29:17;;;;;;;2.67;0.80;;;;;;;26.91;46.66;98146.47;4331531;33;34253;-69
2023/08/06 09:31:48;;;;;;;1.77;0.80;;;;;;;26.90;46.66;98150.28;4332569;33;33658;-68
2023/08/06 09:34:17;;;;;;;0.77;0.75;;;;;;;26.90;46.67;98153.03;4331471;33;34474;-69
2023/08/06 09:36:50;;;;;;;1.60;0.62;;;;;;;26.90;46.64;98154.94;4331269;33;34082;-68
2023/08/06 09:39:28;;;;;;;0.85;0.82;;;;;;;26.91;46.63;98148.41;4317937;33;33914;-69
2023/08/06 09:41:57;;;;;;;1.37;0.50;;;;;;;26.91;46.61;98153.88;4318919;33;33537;-69
2023/08/06 09:44:25;;;;;;;1.42;0.68;;;;;;;26.90;46.62;98149.47;4332536;33;35234;-68
2023/08/06 09:46:54;;;;;;;0.88;0.68;;;;;;;26.91;46.58;98151.13;4319220;33;33112;-68
2023/08/06 09:49:25;;;;;;;0.93;0.70;;;;;;;26.90;46.58;98152.22;4319149;33;33848;-68
2023/08/06 09:51:55;;;;;;;2.65;0.70;;;;;;;26.92;46.56;98150.03;4332387;33;33842;-69
2023/08/06 09:54:24;;;;;;;1.00;0.70;;;;;;;26.92;46.53;98136.34;4332505;33;33790;-68
2023/08/06 09:56:54;;;;;;;1.45;0.68;;;;;;;26.93;46.51;98148.91;4332416;33;32706;-68
2023/08/06 09:59:26;;;;;;;0.85;0.73;;;;;;;26.91;46.52;98151.94;4305642;33;34302;-69
2023/08/06 10:01:54;;;;;;;0.90;0.60;;;;;;;26.91;46.55;98157.41;4331313;33;33942;-68
2023/08/06 10:04:23;;;;;;;1.73;0.85;;;;;;;26.92;46.53;98166.44;4332466;33;33697;-68
2023/08/06 10:06:55;;;;;;;0.62;0.60;;;;;;;26.93;46.47;98177.09;4331974;33;33116;-68
2023/08/06 10:09:23;;;;;;;1.62;0.70;;;;;;;26.93;46.48;98177.09;4318208;33;33858;-68
2023/08/06 10:11:52;;;;;;;0.55;0.55;;;;;;;26.92;46.48;98186.41;4330985;33;34009;-69
2023/08/06 10:14:47;;;;;;;0.60;0.60;;;;;;;26.93;46.46;98179.03;4332225;33;35001;-68
2023/08/06 10:17:15;;;;;;;0.73;0.60;;;;;;;26.94;46.41;98183.38;4331011;33;33451;-69
2023/08/06 10:19:43;;;;;;;0.93;0.70;;;;;;;26.93;46.41;98181.75;4331349;33;33213;-69
2023/08/06 10:22:16;;;;;;;1.27;0.60;;;;;;;26.93;46.43;98190.78;4330971;33;33822;-68
2023/08/06 10:24:49;;;;;;;1.42;0.80;;;;;;;26.93;46.40;98192.69;4331214;33;33387;-68
2023/08/06 10:27:23;;;;;;;0.60;0.60;;;;;;;26.93;46.37;98201.72;4332302;33;33160;-68
2023/08/06 10:29:51;;;;;;;0.70;0.60;;;;;;;26.94;46.36;98213.50;4325968;33;34163;-68
2023/08/06 10:32:18;;;;;;;0.65;0.65;;;;;;;26.93;46.34;98201.72;4317972;33;34136;-69
2023/08/06 10:34:57;;;;;;;0.60;0.60;;;;;;;26.93;46.36;98209.94;4317469;33;34587;-68
2023/08/06 10:37:35;;;;;;;0.50;0.50;;;;;;;26.95;46.36;98217.84;4317628;33;32857;-69
2023/08/06 10:40:03;;;;;;;1.10;0.73;;;;;;;26.95;46.38;98217.84;4304231;33;34627;-68
2023/08/06 10:42:31;;;;;;;0.60;0.60;;;;;;;26.94;46.35;98222.50;4317613;33;33794;-69
2023/08/06 10:45:15;;;;;;;0.80;0.55;;;;;;;26.94;46.32;98224.44;4304384;33;33943;-68
2023/08/06 10:47:43;;;;;;;1.55;0.70;;;;;;;26.97;46.28;98223.88;4316437;33;33088;-69
2023/08/06 10:50:13;;;;;;;1.25;0.77;;;;;;;26.94;46.29;98230.72;4317492;33;33988;-69
2023/08/06 10:52:41;;;;;;;0.77;0.77;;;;;;;26.94;46.31;98227.16;4316195;33;33499;-69
2023/08/06 10:55:09;;;;;;;0.85;0.70;;;;;;;26.95;46.21;98218.69;4325970;33;34070;-68
2023/08/06 10:57:36;;;;;;;1.48;0.88;;;;;;;26.95;46.21;98226.06;4332139;33;33653;-69
2023/08/06 11:00:05;;;;;;;0.90;0.70;;;;;;;26.95;46.19;98218.69;4330665;33;33809;-68
2023/08/06 11:02:43;;;;;;;1.48;0.77;;;;;;;26.95;46.14;98226.06;4332052;33;33634;-69
2023/08/06 11:05:12;;;;;;;0.82;0.77;;;;;;;26.97;46.09;98226.59;4330728;33;33584;-68
2023/08/06 11:07:39;;;;;;;0.85;0.70;;;;;;;26.97;46.07;98240.28;4332101;33;33048;-68
2023/08/06 11:10:08;;;;;;;0.80;0.80;;;;;;;26.96;46.10;98244.97;4332066;33;34526;-68
2023/08/06 11:12:36;;;;;;;0.77;0.77;;;;;;;26.96;46.12;98252.34;4331781;33;33845;-69
2023/08/06 11:15:03;;;;;;;1.05;0.90;;;;;;;26.95;46.09;98243.31;4331827;33;33434;-69
2023/08/06 11:17:32;;;;;;;0.80;0.80;;;;;;;26.96;46.12;98244.12;4331984;33;33406;-68
2023/08/06 11:20:01;;;;;;;1.40;0.80;;;;;;;26.96;46.12;98244.12;4324251;33;33727;-68
2023/08/06 11:22:29;;;;;;;0.70;0.70;;;;;;;26.96;46.17;98246.88;4317187;33;35326;-69
2023/08/06 11:24:57;;;;;;;0.62;0.62;;;;;;;26.94;46.17;98233.47;4305897;33;34245;-68
2023/08/06 11:27:25;;;;;;;0.80;0.80;;;;;;;26.97;46.16;98245.78;4318487;33;33379;-69
2023/08/06 11:29:53;;;;;;;0.77;0.77;;;;;;;26.96;46.17;98230.47;4318461;33;33890;-69
2023/08/06 11:32:22;;;;;;;0.80;0.80;;;;;;;26.98;46.09;98233.72;4318457;33;35463;-68
2023/08/06 11:34:50;;;;;;;1.00;0.70;;;;;;;26.96;46.10;98233.19;4324565;33;33782;-69
2023/08/06 11:37:22;;;;;;;0.70;0.70;;;;;;;26.97;46.09;98248.50;4317052;33;33426;-68
2023/08/06 11:39:49;;;;;;;1.17;0.85;;;;;;;26.96;46.07;98238.66;4317213;33;33561;-69
2023/08/06 11:42:17;;;;;;;0.93;0.82;;;;;;;26.98;46.01;98247.41;4303726;33;34460;-69
2023/08/06 11:44:45;;;;;;;0.90;0.73;;;;;;;26.96;46.01;98244.97;4317114;33;34523;-68
2023/08/06 11:47:14;;;;;;;1.40;0.88;;;;;;;26.97;45.97;98245.78;4316859;33;33324;-68
2023/08/06 11:49:48;;;;;;;0.80;0.80;;;;;;;26.96;45.99;98253.16;4303785;33;34281;-69